createdAt,value
2019-04-03T00:01:12.499Z,47.00
2019-04-03T00:03:16.467Z,50.00
2019-04-03T00:05:20.411Z,50.48
2019-04-03T00:07:24.303Z,49.40
2019-04-03T00:09:28.395Z,48.02
2019-04-03T00:11:32.265Z,48.63
2019-04-03T00:13:36.174Z,50.00
2019-04-03T00:15:40.039Z,49.63
2019-04-03T00:17:45.637Z,49.48
2019-04-03T00:19:49.389Z,50.78
2019-04-03T00:21:53.398Z,51.25
2019-04-03T00:23:57.262Z,45.80
2019-04-03T00:26:01.121Z,44.38
2019-04-03T00:28:05.075Z,53.17
2019-04-03T00:30:10.653Z,49.18
2019-04-03T00:32:14.661Z,47.70
2019-04-03T00:34:18.620Z,49.80
2019-04-03T00:36:23.314Z,44.58
2019-04-03T00:38:27.823Z,47.48
2019-04-03T00:40:31.664Z,50.58
2019-04-03T00:42:35.587Z,47.95
2019-04-03T00:44:39.475Z,52.70
2019-04-03T00:46:43.339Z,46.73
2019-04-03T00:48:47.237Z,46.10
2019-04-03T00:50:51.098Z,48.48
2019-04-03T00:52:57.081Z,56.75
2019-04-03T00:55:01.036Z,50.00
2019-04-03T00:57:04.957Z,46.83
2019-04-03T00:59:08.895Z,49.40
2019-04-03T01:01:22.794Z,51.53
2019-04-03T01:03:28.173Z,50.15
2019-04-03T01:05:32.198Z,46.80
2019-04-03T01:07:36.078Z,48.87
2019-04-03T01:09:39.950Z,49.67
2019-04-03T01:11:43.856Z,47.70
2019-04-03T01:13:47.895Z,52.27
2019-04-03T01:15:51.950Z,52.00
2019-04-03T01:17:56.039Z,45.98
2019-04-03T01:19:59.903Z,47.30
2019-04-03T01:22:03.760Z,46.05
2019-04-03T01:24:08.441Z,50.58
2019-04-03T01:26:12.450Z,48.98
2019-04-03T01:28:16.301Z,43.73
2019-04-03T01:30:20.123Z,47.13
2019-04-03T01:32:24.016Z,50.10
2019-04-03T01:34:27.881Z,48.10
2019-04-03T01:36:31.754Z,49.03
2019-04-03T01:38:35.649Z,47.60
2019-04-03T01:40:39.511Z,48.23
2019-04-03T01:42:43.367Z,50.98
2019-04-03T01:44:47.403Z,49.40
2019-04-03T01:46:51.304Z,50.12
2019-04-03T01:48:55.164Z,51.73
2019-04-03T01:50:59.600Z,49.60
2019-04-03T01:53:04.136Z,50.17
2019-04-03T01:55:08.066Z,49.18
2019-04-03T01:57:11.917Z,49.53
2019-04-03T01:59:15.822Z,51.55
2019-04-03T02:01:19.670Z,56.45
2019-04-03T02:03:23.545Z,53.38
2019-04-03T02:05:27.384Z,50.65
2019-04-03T02:07:31.250Z,49.35
2019-04-03T02:09:35.078Z,54.45
2019-04-03T02:11:39.454Z,50.08
2019-04-03T02:13:43.711Z,55.12
2019-04-03T02:15:47.618Z,49.95
2019-04-03T02:17:54.157Z,48.00
2019-04-03T02:19:57.115Z,53.80
2019-04-03T02:22:01.284Z,55.40
2019-04-03T02:24:05.212Z,53.63
2019-04-03T02:26:09.117Z,54.65
2019-04-03T02:28:13.097Z,49.58
2019-04-03T02:30:17.328Z,52.45
2019-04-03T02:32:23.215Z,53.70
2019-04-03T02:34:26.863Z,52.20
2019-04-03T02:36:30.867Z,49.45
2019-04-03T02:38:34.774Z,50.48
2019-04-03T02:40:38.547Z,52.48
2019-04-03T02:42:42.892Z,50.70
2019-04-03T02:44:48.450Z,51.75
2019-04-03T02:46:52.302Z,51.55
2019-04-03T02:48:56.234Z,54.63
2019-04-03T02:51:00.593Z,55.23
2019-04-03T02:53:06.871Z,54.73
2019-04-03T02:55:10.747Z,56.00
2019-04-03T02:57:17.748Z,51.48
2019-04-03T02:59:20.308Z,54.10
2019-04-03T03:01:24.289Z,57.60
2019-04-03T03:03:28.134Z,59.08
2019-04-03T03:05:31.989Z,55.45
2019-04-03T03:07:36.570Z,54.15
2019-04-03T03:09:43.440Z,53.17
2019-04-03T03:11:47.283Z,51.98
2019-04-03T03:13:51.704Z,55.45
2019-04-03T03:15:56.462Z,55.63
2019-04-03T03:18:00.481Z,50.83
2019-04-03T03:20:07.840Z,56.77
2019-04-03T03:22:14.704Z,50.70
2019-04-03T03:24:18.515Z,49.75
2019-04-03T03:26:23.265Z,49.77
2019-04-03T03:28:27.601Z,59.83
2019-04-03T03:30:41.345Z,55.17
2019-04-03T03:32:38.560Z,57.45
2019-04-03T03:34:53.851Z,54.08
2019-04-03T03:36:49.051Z,56.90
2019-04-03T03:38:54.273Z,57.70
2019-04-03T03:40:58.834Z,54.08
2019-04-03T03:43:05.061Z,59.27
2019-04-03T03:45:09.695Z,59.55
2019-04-03T03:47:13.771Z,54.30
2019-04-03T03:49:18.455Z,56.33
2019-04-03T03:51:23.107Z,57.78
2019-04-03T03:53:28.404Z,59.45
2019-04-03T03:55:33.236Z,56.83
2019-04-03T03:57:39.679Z,56.30
2019-04-03T03:59:43.869Z,59.70
2019-04-03T04:01:48.789Z,56.30
2019-04-03T04:03:53.037Z,55.78
2019-04-03T04:05:57.139Z,58.15
2019-04-03T04:08:01.147Z,56.90
2019-04-03T04:10:06.486Z,61.70
2019-04-03T04:12:10.748Z,55.17
2019-04-03T04:14:14.997Z,61.80
2019-04-03T04:16:19.651Z,62.33
2019-04-03T04:18:25.064Z,57.38
2019-04-03T04:20:29.410Z,55.73
2019-04-03T04:22:33.863Z,61.28
2019-04-03T04:24:38.223Z,62.05
2019-04-03T04:26:42.861Z,61.65
2019-04-03T04:28:46.693Z,62.93
2019-04-03T04:30:50.615Z,56.08
2019-04-03T04:32:54.450Z,58.28
2019-04-03T04:34:58.290Z,60.35
2019-04-03T04:37:03.061Z,58.08
2019-04-03T04:39:08.950Z,57.53
2019-04-03T04:41:12.844Z,59.13
2019-04-03T04:43:16.680Z,59.20
2019-04-03T04:45:20.561Z,59.65
2019-04-03T04:47:24.645Z,56.68
2019-04-03T04:49:28.848Z,52.20
2019-04-03T04:51:32.848Z,63.05
2019-04-03T04:53:36.911Z,55.05
2019-04-03T04:55:40.975Z,57.25
2019-04-03T04:57:44.866Z,63.28
2019-04-03T04:59:48.712Z,56.73
2019-04-03T05:01:52.708Z,58.65
2019-04-03T05:03:56.681Z,54.45
2019-04-03T05:06:00.547Z,55.45
2019-04-03T05:08:04.794Z,60.90
2019-04-03T05:10:08.598Z,60.35
2019-04-03T05:12:12.696Z,58.02
2019-04-03T05:14:18.007Z,61.33
2019-04-03T05:16:24.540Z,58.05
2019-04-03T05:18:29.309Z,55.88
2019-04-03T05:20:33.503Z,51.90
2019-04-03T05:22:37.385Z,57.20
2019-04-03T05:24:41.230Z,55.63
2019-04-03T05:26:45.239Z,56.00
2019-04-03T05:28:55.845Z,52.33
2019-04-03T05:30:56.090Z,54.45
2019-04-03T05:33:21.660Z,49.05
2019-04-03T05:35:27.036Z,62.08
2019-04-03T05:37:50.332Z,51.73
2019-04-03T05:39:55.545Z,50.70
2019-04-03T05:41:59.768Z,51.70
2019-04-03T05:44:04.228Z,56.20
2019-04-03T05:46:08.370Z,58.75
2019-04-03T05:48:13.577Z,47.90
2019-04-03T05:50:17.917Z,53.52
2019-04-03T05:52:21.938Z,50.40
2019-04-03T05:54:25.904Z,52.35
2019-04-03T05:56:29.778Z,51.77
2019-04-03T05:58:33.661Z,50.58
2019-04-03T06:00:38.180Z,49.30
2019-04-03T06:02:42.699Z,50.35
2019-04-03T06:04:46.876Z,52.50
2019-04-03T06:06:50.848Z,47.38
2019-04-03T06:08:57.723Z,48.30
2019-04-03T06:11:03.532Z,50.65
2019-04-03T06:13:07.138Z,44.70
2019-04-03T06:15:10.980Z,56.00
2019-04-03T06:17:14.818Z,65.28
2019-04-03T06:19:19.272Z,56.80
2019-04-03T06:21:23.128Z,52.10
2019-04-03T06:23:27.061Z,54.55
2019-04-03T06:25:31.374Z,53.60
2019-04-03T06:27:35.713Z,46.28
2019-04-03T06:29:39.606Z,47.08
2019-04-03T06:31:43.497Z,52.53
2019-04-03T06:33:47.631Z,44.00
2019-04-03T06:35:51.579Z,51.70
2019-04-03T06:37:55.495Z,53.35
2019-04-03T06:40:03.301Z,53.25
2019-04-03T06:42:07.046Z,49.73
2019-04-03T06:44:10.938Z,46.45
2019-04-03T06:46:14.783Z,50.67
2019-04-03T06:48:18.661Z,45.75
2019-04-03T06:50:22.531Z,45.75
2019-04-03T06:52:26.365Z,48.13
2019-04-03T06:54:31.920Z,48.73
2019-04-03T06:56:35.881Z,44.85
2019-04-03T06:58:40.321Z,48.23
2019-04-03T07:00:45.274Z,46.42
2019-04-03T07:02:49.909Z,49.77
2019-04-03T07:04:53.813Z,44.00
2019-04-03T07:06:57.677Z,46.90
2019-04-03T07:09:01.606Z,46.65
2019-04-03T07:11:07.125Z,45.23
2019-04-03T07:13:11.023Z,47.35
2019-04-03T07:15:14.990Z,44.33
2019-04-03T07:17:19.322Z,48.33
2019-04-03T07:19:23.526Z,44.45
2019-04-03T07:21:27.761Z,46.05
2019-04-03T07:23:32.010Z,45.05
2019-04-03T07:25:35.962Z,45.52
2019-04-03T07:27:41.771Z,48.55
2019-04-03T07:29:46.876Z,45.00
2019-04-03T07:31:50.866Z,47.58
2019-04-03T07:33:57.409Z,47.88
2019-04-03T07:36:00.402Z,44.75
2019-04-03T07:38:04.254Z,47.53
2019-04-03T07:40:08.416Z,44.18
2019-04-03T07:42:12.251Z,48.08
2019-04-03T07:44:16.543Z,51.00
2019-04-03T07:46:20.427Z,45.23
2019-04-03T07:48:24.340Z,43.02
2019-04-03T07:50:28.220Z,46.30
2019-04-03T07:52:32.095Z,41.48
2019-04-03T07:54:35.965Z,43.85
2019-04-03T07:56:40.181Z,46.83
2019-04-03T07:58:44.415Z,43.90
2019-04-03T08:00:48.384Z,46.37
2019-04-03T08:02:52.391Z,54.15
2019-04-03T08:04:59.451Z,44.38
2019-04-03T08:07:01.935Z,41.05
2019-04-03T08:09:09.781Z,47.55
2019-04-03T08:11:14.964Z,45.17
2019-04-03T08:13:19.414Z,41.28
2019-04-03T08:15:23.275Z,42.98
2019-04-03T08:17:27.143Z,44.33
2019-04-03T08:19:31.451Z,43.98
2019-04-03T08:21:35.429Z,44.00
2019-04-03T08:23:39.346Z,51.42
2019-04-03T08:25:47.228Z,45.90
2019-04-03T08:27:48.734Z,45.90
2019-04-03T08:29:52.646Z,49.40
2019-04-03T08:31:56.510Z,45.03
2019-04-03T08:34:00.640Z,43.28
2019-04-03T08:36:07.216Z,41.00
2019-04-03T08:38:12.407Z,48.28
2019-04-03T08:40:16.186Z,48.20
2019-04-03T08:42:20.098Z,42.45
2019-04-03T08:44:23.933Z,41.60
2019-04-03T08:46:27.813Z,45.00
2019-04-03T08:48:31.826Z,45.23
2019-04-03T08:50:35.772Z,48.87
2019-04-03T08:52:39.873Z,43.35
2019-04-03T08:54:43.984Z,43.60
2019-04-03T08:56:49.000Z,41.48
2019-04-03T08:58:56.506Z,44.18
2019-04-03T09:00:58.852Z,42.73
2019-04-03T09:03:04.082Z,40.92
2019-04-03T09:05:08.642Z,45.23
2019-04-03T09:07:12.489Z,38.58
2019-04-03T09:09:16.406Z,41.37
2019-04-03T09:11:20.319Z,42.08
2019-04-03T09:13:24.336Z,40.83
2019-04-03T09:15:28.692Z,44.75
2019-04-03T09:17:34.051Z,45.00
2019-04-03T09:19:40.613Z,37.38
2019-04-03T09:21:45.350Z,42.40
2019-04-03T09:23:49.446Z,44.90
2019-04-03T09:25:53.282Z,40.78
2019-04-03T09:27:57.240Z,36.58
2019-04-03T09:30:01.092Z,40.85
2019-04-03T09:32:05.140Z,38.70
2019-04-03T09:34:12.214Z,37.17
2019-04-03T09:36:17.516Z,36.33
2019-04-03T09:38:21.379Z,38.78
2019-04-03T09:40:25.375Z,39.95
2019-04-03T09:42:29.306Z,38.70
2019-04-03T09:44:33.204Z,39.98
2019-04-03T09:46:37.052Z,45.38
2019-04-03T09:48:41.268Z,36.60
2019-04-03T09:50:46.793Z,35.23
2019-04-03T09:52:54.144Z,34.53
2019-04-03T09:54:58.042Z,39.00
2019-04-03T09:57:04.857Z,36.55
2019-04-03T09:59:08.205Z,38.25
2019-04-03T10:01:15.744Z,40.65
2019-04-03T10:03:18.137Z,41.02
2019-04-03T10:05:22.384Z,42.50
2019-04-03T10:07:26.564Z,34.40
2019-04-03T10:09:30.525Z,36.03
2019-04-03T10:11:34.603Z,31.02
2019-04-03T10:13:38.526Z,32.88
2019-04-03T10:15:42.590Z,32.73
2019-04-03T10:17:46.486Z,36.03
2019-04-03T10:19:50.415Z,38.53
2019-04-03T10:21:54.286Z,34.15
2019-04-03T10:24:00.007Z,30.05
2019-04-03T10:26:03.847Z,30.05
2019-04-03T10:28:07.900Z,31.73
2019-04-03T10:30:14.528Z,31.40
2019-04-03T10:32:18.431Z,34.18
2019-04-03T10:34:22.454Z,37.23
2019-04-03T10:36:26.341Z,40.15
2019-04-03T10:38:30.703Z,28.00
2019-04-03T10:40:34.568Z,31.85
2019-04-03T10:42:38.466Z,31.48
2019-04-03T10:44:42.478Z,30.90
2019-04-03T10:46:47.795Z,34.05
2019-04-03T10:48:52.133Z,33.78
2019-04-03T10:50:56.289Z,32.28
2019-04-03T10:53:00.454Z,32.85
2019-04-03T10:55:07.038Z,29.30
2019-04-03T10:57:10.875Z,33.20
2019-04-03T10:59:17.938Z,29.02
2019-04-03T11:01:20.582Z,28.17
2019-04-03T11:03:26.356Z,32.38
2019-04-03T11:05:30.802Z,35.48
2019-04-03T11:07:34.730Z,33.75
2019-04-03T11:09:39.038Z,34.25
2019-04-03T11:11:43.764Z,35.20
2019-04-03T11:13:48.007Z,37.38
2019-04-03T11:15:51.869Z,38.02
2019-04-03T11:17:55.815Z,37.33
2019-04-03T11:20:00.125Z,30.52
2019-04-03T11:22:04.077Z,32.45
2019-04-03T11:24:08.130Z,30.75
2019-04-03T11:26:12.250Z,31.20
2019-04-03T11:28:16.198Z,38.67
2019-04-03T11:30:55.509Z,39.33
2019-04-03T11:32:26.117Z,31.12
2019-04-03T11:34:30.048Z,33.28
2019-04-03T11:36:33.912Z,35.83
2019-04-03T11:38:37.716Z,36.15
2019-04-03T11:40:41.806Z,29.40
2019-04-03T11:42:46.042Z,35.17
2019-04-03T11:44:53.039Z,30.08
2019-04-03T11:46:57.039Z,32.23
2019-04-03T11:49:01.136Z,29.95
2019-04-03T11:51:05.371Z,32.25
2019-04-03T11:53:09.363Z,32.23
2019-04-03T11:55:13.726Z,35.68
2019-04-03T11:57:18.027Z,32.15
2019-04-03T11:59:24.055Z,33.50
2019-04-03T12:01:27.481Z,29.30
2019-04-03T12:03:31.369Z,31.77
2019-04-03T12:05:35.263Z,36.38
2019-04-03T12:07:39.121Z,33.02
2019-04-03T12:09:43.055Z,31.55
2019-04-03T12:11:46.955Z,30.10
2019-04-03T12:13:50.824Z,28.17
2019-04-03T12:15:57.991Z,29.67
2019-04-03T12:18:01.151Z,32.95
2019-04-03T12:20:09.192Z,30.72
2019-04-03T12:22:13.080Z,34.58
2019-04-03T12:24:17.096Z,29.30
2019-04-03T12:26:21.368Z,34.95
2019-04-03T12:28:25.227Z,31.50
2019-04-03T12:30:29.317Z,34.23
2019-04-03T12:32:39.295Z,28.17
2019-04-03T12:34:38.781Z,32.50
2019-04-03T12:36:43.479Z,28.35
2019-04-03T12:38:48.307Z,29.32
2019-04-03T12:40:52.345Z,27.67
2019-04-03T12:42:56.443Z,30.08
2019-04-03T12:45:00.384Z,28.12
2019-04-03T12:47:05.628Z,29.87
2019-04-03T12:49:09.776Z,26.85
2019-04-03T12:51:13.617Z,33.02
2019-04-03T12:53:17.465Z,32.78
2019-04-03T12:55:22.998Z,25.20
2019-04-03T12:57:32.383Z,24.87
2019-04-03T12:59:35.386Z,27.35
2019-04-03T13:01:39.275Z,31.33
2019-04-03T13:03:43.108Z,22.87
2019-04-03T13:05:49.026Z,27.55
2019-04-03T13:07:52.630Z,23.15
2019-04-03T13:09:56.827Z,23.50
2019-04-03T13:12:00.822Z,20.95
2019-04-03T13:14:04.893Z,18.52
2019-04-03T13:16:10.272Z,25.88
2019-04-03T13:18:14.291Z,22.93
2019-04-03T13:20:37.648Z,25.77
2019-04-03T13:22:43.170Z,25.08
2019-04-03T13:24:48.292Z,30.82
2019-04-03T13:26:52.913Z,27.48
2019-04-03T13:28:56.922Z,21.12
2019-04-03T13:31:00.889Z,20.20
2019-04-03T13:33:06.583Z,25.35
2019-04-03T13:35:14.591Z,23.35
2019-04-03T13:37:17.777Z,23.27
2019-04-03T13:39:21.958Z,21.52
2019-04-03T13:41:25.931Z,19.25
2019-04-03T13:43:29.782Z,24.52
2019-04-03T13:45:33.716Z,24.20
2019-04-03T13:47:39.734Z,19.40
2019-04-03T13:49:43.686Z,20.25
2019-04-03T13:51:47.585Z,23.50
2019-04-03T13:53:53.046Z,19.00
2019-04-03T13:55:57.211Z,25.05
2019-04-03T13:58:01.225Z,24.32
2019-04-03T14:00:18.720Z,19.60
2019-04-03T14:02:13.210Z,19.02
2019-04-03T14:04:18.112Z,17.80
2019-04-03T14:06:22.003Z,21.80
2019-04-03T14:08:25.842Z,21.27
2019-04-03T14:10:29.779Z,21.48
2019-04-03T14:12:36.545Z,23.45
2019-04-03T14:14:39.590Z,23.40
2019-04-03T14:16:43.538Z,19.32
2019-04-03T14:18:49.525Z,21.23
2019-04-03T14:20:55.321Z,25.37
2019-04-03T14:22:58.739Z,21.82
2019-04-03T14:25:02.976Z,21.65
2019-04-03T14:27:18.851Z,20.05
2019-04-03T14:29:13.499Z,23.00
2019-04-03T14:31:18.652Z,21.15
2019-04-03T14:33:25.090Z,20.02
2019-04-03T14:35:50.364Z,20.82
2019-04-03T14:37:34.061Z,17.12
2019-04-03T14:39:40.117Z,21.52
2019-04-03T14:41:43.457Z,23.02
2019-04-03T14:43:47.487Z,21.17
2019-04-03T14:45:51.646Z,38.63
2019-04-03T14:47:55.978Z,24.55
2019-04-03T14:50:00.631Z,24.72
2019-04-03T14:52:06.345Z,19.77
2019-04-03T14:54:10.227Z,18.17
2019-04-03T14:56:14.076Z,22.90
2019-04-03T14:58:17.961Z,18.80
2019-04-03T15:00:27.390Z,19.75
2019-04-03T15:02:27.411Z,19.77
2019-04-03T15:04:36.073Z,17.75
2019-04-03T15:06:36.822Z,19.65
2019-04-03T15:08:40.717Z,18.55
2019-04-03T15:10:44.607Z,18.25
2019-04-03T15:12:48.934Z,20.65
2019-04-03T15:14:54.504Z,20.15
2019-04-03T15:16:58.407Z,24.10
2019-04-03T15:19:02.705Z,19.15
2019-04-03T15:21:06.738Z,17.90
2019-04-03T15:23:10.629Z,17.98
2019-04-03T15:25:15.824Z,17.25
2019-04-03T15:27:20.203Z,20.25
2019-04-03T15:29:24.041Z,18.62
2019-04-03T15:31:27.966Z,16.10
2019-04-03T15:33:31.855Z,23.35
2019-04-03T15:35:37.124Z,22.13
2019-04-03T15:37:42.407Z,17.92
2019-04-03T15:39:50.645Z,26.02
2019-04-03T15:41:52.345Z,21.75
2019-04-03T15:43:56.696Z,23.27
2019-04-03T15:46:00.835Z,19.48
2019-04-03T15:48:07.566Z,16.82
2019-04-03T15:50:15.290Z,18.90
2019-04-03T15:52:19.315Z,19.30
2019-04-03T15:54:25.812Z,21.30
2019-04-03T15:56:29.006Z,19.35
2019-04-03T15:58:33.023Z,17.82
2019-04-03T16:00:37.079Z,19.92
2019-04-03T16:02:44.371Z,17.35
2019-04-03T16:04:46.585Z,21.25
2019-04-03T16:06:50.633Z,19.25
2019-04-03T16:08:54.655Z,19.85
2019-04-03T16:10:58.928Z,21.65
2019-04-03T16:13:03.264Z,17.02
2019-04-03T16:15:09.228Z,16.05
2019-04-03T16:17:13.649Z,17.90
2019-04-03T16:19:17.614Z,23.83
2019-04-03T16:21:23.754Z,18.23
2019-04-03T16:23:27.902Z,19.32
2019-04-03T16:25:32.540Z,21.00
2019-04-03T16:27:36.505Z,22.55
2019-04-03T16:29:41.336Z,19.85
2019-04-03T16:31:46.064Z,19.92
2019-04-03T16:33:50.124Z,19.82
2019-04-03T16:35:54.077Z,22.13
2019-04-03T16:37:58.030Z,18.80
2019-04-03T16:40:04.158Z,18.27
2019-04-03T16:42:07.441Z,20.95
2019-04-03T16:44:11.402Z,25.10
2019-04-03T16:46:15.680Z,24.27
2019-04-03T16:48:19.716Z,21.20
2019-04-03T16:50:26.146Z,20.32
2019-04-03T16:52:30.331Z,17.60
2019-04-03T16:54:34.406Z,19.67
2019-04-03T16:56:39.479Z,19.30
2019-04-03T16:58:43.425Z,20.70
2019-04-03T17:00:47.268Z,21.33
2019-04-03T17:02:51.231Z,19.37
2019-04-03T17:04:55.170Z,22.55
2019-04-03T17:06:59.369Z,22.77
2019-04-03T17:09:05.525Z,19.87
2019-04-03T17:11:09.921Z,23.10
2019-04-03T17:13:15.014Z,21.12
2019-04-03T17:15:19.155Z,25.30
2019-04-03T17:17:23.055Z,22.40
2019-04-03T17:19:26.935Z,23.32
2019-04-03T17:21:36.817Z,18.12
2019-04-03T17:23:36.389Z,18.57
2019-04-03T17:25:47.617Z,20.68
2019-04-03T17:27:55.124Z,22.05
2019-04-03T17:29:51.328Z,22.55
2019-04-03T17:31:58.141Z,20.25
2019-04-03T17:34:00.753Z,21.17
2019-04-03T17:36:04.706Z,22.27
2019-04-03T17:38:08.696Z,23.05
2019-04-03T17:40:13.361Z,23.42
2019-04-03T17:42:17.383Z,28.15
2019-04-03T17:44:21.282Z,29.77
2019-04-03T17:46:25.191Z,35.95
2019-04-03T17:48:29.054Z,37.13
2019-04-03T17:50:32.940Z,32.38
2019-04-03T17:52:37.107Z,31.57
2019-04-03T17:54:41.107Z,33.78
2019-04-03T17:56:45.097Z,28.12
2019-04-03T17:58:49.021Z,26.12
2019-04-03T18:00:52.951Z,28.20
2019-04-03T18:02:56.949Z,27.20
2019-04-03T18:05:00.844Z,33.18
2019-04-03T18:07:04.851Z,32.33
2019-04-03T18:09:09.494Z,34.18
2019-04-03T18:11:13.873Z,28.32
2019-04-03T18:13:17.794Z,28.67
2019-04-03T18:15:21.736Z,31.10
2019-04-03T18:17:25.806Z,28.50
2019-04-03T18:19:37.355Z,28.00
2019-04-03T18:21:35.351Z,27.15
2019-04-03T18:23:39.235Z,33.73
2019-04-03T18:25:44.123Z,28.10
2019-04-03T18:27:48.020Z,27.48
2019-04-03T18:29:51.982Z,28.90
2019-04-03T18:31:55.910Z,33.18
2019-04-03T18:33:59.838Z,29.75
2019-04-03T18:36:03.926Z,29.55
2019-04-03T18:38:08.543Z,30.48
2019-04-03T18:40:15.068Z,30.27
2019-04-03T18:42:18.632Z,29.35
2019-04-03T18:44:26.024Z,31.42
2019-04-03T18:46:32.408Z,32.83
2019-04-03T18:48:34.053Z,30.90
2019-04-03T18:50:37.949Z,33.40
2019-04-03T18:52:41.837Z,38.33
2019-04-03T18:54:45.699Z,33.33
2019-04-03T18:56:49.661Z,40.28
2019-04-03T18:58:56.375Z,37.00
2019-04-03T19:01:01.775Z,31.40
2019-04-03T19:03:06.482Z,37.17
2019-04-03T19:05:13.970Z,31.48
2019-04-03T19:07:16.847Z,32.35
2019-04-03T19:09:21.354Z,31.97
2019-04-03T19:11:25.615Z,34.20
2019-04-03T19:13:29.639Z,35.20
2019-04-03T19:15:33.653Z,34.65
2019-04-03T19:17:38.145Z,29.20
2019-04-03T19:19:42.041Z,29.80
2019-04-03T19:21:46.067Z,31.30
2019-04-03T19:23:51.987Z,29.15
2019-04-03T19:25:58.113Z,33.48
2019-04-03T19:28:04.014Z,32.70
2019-04-03T19:30:08.879Z,34.65
2019-04-03T19:32:12.830Z,32.60
2019-04-03T19:34:19.900Z,32.50
2019-04-03T19:36:22.476Z,36.77
2019-04-03T19:38:26.383Z,33.45
2019-04-03T19:40:30.486Z,34.27
2019-04-03T19:42:34.562Z,32.98
2019-04-03T19:44:38.436Z,36.20
2019-04-03T19:46:42.472Z,35.90
2019-04-03T19:48:46.687Z,32.98
2019-04-03T19:50:50.844Z,32.03
2019-04-03T19:52:55.125Z,33.60
2019-04-03T19:54:59.520Z,35.73
2019-04-03T19:57:03.655Z,34.45
2019-04-03T19:59:07.886Z,35.68
2019-04-03T20:01:11.823Z,40.28
2019-04-03T20:03:16.022Z,40.85
2019-04-03T20:05:19.867Z,38.95
2019-04-03T20:07:26.759Z,37.90
2019-04-03T20:09:34.926Z,43.87
2019-04-03T20:11:42.935Z,42.45
2019-04-03T20:13:47.269Z,39.15
2019-04-03T20:15:53.793Z,41.13
2019-04-03T20:18:00.542Z,38.98
2019-04-03T20:20:06.301Z,48.58
2019-04-03T20:22:10.267Z,45.63
2019-04-03T20:24:14.283Z,39.73
2019-04-03T20:26:18.154Z,43.87
2019-04-03T20:28:24.166Z,34.50
2019-04-03T20:30:28.046Z,39.90
2019-04-03T20:32:32.027Z,39.85
2019-04-03T20:34:35.884Z,36.42
2019-04-03T20:36:39.922Z,38.63
2019-04-03T20:38:44.703Z,35.80
2019-04-03T20:40:51.594Z,36.50
2019-04-03T20:42:56.863Z,38.88
2019-04-03T20:45:01.007Z,39.03
2019-04-03T20:47:04.981Z,38.40
2019-04-03T20:49:08.803Z,35.70
2019-04-03T20:51:12.685Z,39.85
2019-04-03T20:53:17.173Z,38.83
2019-04-03T20:55:24.764Z,35.65
2019-04-03T20:57:27.282Z,38.40
2019-04-03T20:59:31.387Z,37.05
2019-04-03T21:01:35.517Z,36.08
2019-04-03T21:03:39.993Z,34.80
2019-04-03T21:05:48.781Z,37.38
2019-04-03T21:07:56.406Z,36.35
2019-04-03T21:10:04.832Z,36.35
2019-04-03T21:12:12.465Z,32.30
2019-04-03T21:14:19.885Z,34.58
2019-04-03T21:16:33.245Z,34.33
2019-04-03T21:18:36.219Z,35.20
2019-04-03T21:20:43.672Z,38.17
2019-04-03T21:22:51.736Z,32.67
2019-04-03T21:24:56.609Z,34.05
2019-04-03T21:27:00.581Z,36.55
2019-04-03T21:29:04.494Z,32.75
2019-04-03T21:31:09.468Z,31.65
2019-04-03T21:33:17.252Z,32.88
2019-04-03T21:35:26.230Z,36.35
2019-04-03T21:37:30.053Z,34.33
2019-04-03T21:39:34.082Z,33.35
2019-04-03T21:41:38.237Z,29.25
2019-04-03T21:46:10.562Z,30.82
2019-04-03T21:48:14.589Z,35.65
2019-04-03T21:50:19.359Z,30.17
2019-04-03T21:52:24.273Z,28.90
2019-04-03T21:54:54.835Z,30.17
2019-04-03T21:57:06.924Z,35.08
2019-04-03T21:59:11.405Z,29.57
2019-04-03T22:01:21.006Z,34.15
2019-04-03T22:03:25.038Z,36.10
2019-04-03T22:05:29.039Z,34.13
2019-04-03T22:07:32.962Z,32.58
2019-04-03T22:09:36.862Z,33.40
2019-04-03T22:11:40.773Z,32.28
2019-04-03T22:13:44.616Z,36.05
2019-04-03T22:15:48.519Z,31.05
2019-04-03T22:17:52.948Z,33.33
2019-04-03T22:19:58.447Z,32.45
2019-04-03T22:22:03.080Z,32.78
2019-04-03T22:24:07.767Z,34.95
2019-04-03T22:26:11.738Z,33.63
2019-04-03T22:28:16.060Z,36.88
2019-04-03T22:30:20.007Z,36.77
2019-04-03T22:32:25.418Z,36.73
2019-04-03T22:34:29.917Z,35.95
2019-04-03T22:36:34.457Z,33.63
2019-04-03T22:38:38.417Z,36.68
2019-04-03T22:40:42.349Z,36.88
2019-04-03T22:42:46.370Z,34.45
2019-04-03T22:44:50.377Z,35.35
2019-04-03T22:46:54.693Z,34.70
2019-04-03T22:49:02.877Z,42.35
2019-04-03T22:51:07.453Z,41.55
2019-04-03T22:53:11.373Z,43.70
2019-04-03T22:55:15.486Z,34.10
2019-04-03T22:57:20.196Z,36.38
2019-04-03T22:59:24.462Z,36.45
2019-04-03T23:01:29.854Z,36.03
2019-04-03T23:03:34.464Z,31.80
2019-04-03T23:05:38.394Z,35.40
2019-04-03T23:07:42.271Z,35.03
2019-04-03T23:09:46.321Z,35.92
2019-04-03T23:11:50.213Z,35.35
2019-04-03T23:13:54.373Z,33.73
2019-04-03T23:15:58.601Z,32.53
2019-04-03T23:18:02.474Z,37.15
2019-04-03T23:20:06.791Z,33.00
2019-04-03T23:22:10.662Z,35.48
2019-04-03T23:24:14.543Z,34.18
2019-04-03T23:26:18.492Z,39.25
2019-04-03T23:28:22.343Z,32.70
2019-04-03T23:30:26.815Z,37.15
2019-04-03T23:32:30.697Z,37.98
2019-04-03T23:34:34.570Z,42.40
2019-04-03T23:36:38.429Z,35.50
2019-04-03T23:38:42.270Z,36.28
2019-04-03T23:40:46.197Z,41.60
2019-04-03T23:42:50.075Z,34.78
2019-04-03T23:44:54.001Z,36.33
2019-04-03T23:46:57.858Z,36.35
2019-04-03T23:49:01.739Z,42.40
2019-04-03T23:51:05.647Z,38.15
2019-04-03T23:53:09.509Z,36.45
2019-04-03T23:55:13.428Z,40.75
2019-04-03T23:57:17.276Z,40.70
2019-04-03T23:59:21.146Z,40.25
